sensor_id;sensor_type;location;lat;lon;timestamp;P1;durP1;ratioP1;P2;durP2;ratioP2
24273;SDS011;12392;42.678;23.380;2024-03-02T00:00:36;40.88;;;23.58;;
24273;SDS011;12392;42.678;23.380;2024-03-02T00:03:03;38.10;;;25.13;;
24273;SDS011;12392;42.678;23.380;2024-03-02T00:05:29;38.08;;;23.27;;
24273;SDS011;12392;42.678;23.380;2024-03-02T00:07:55;37.30;;;18.42;;
24273;SDS011;12392;42.678;23.380;2024-03-02T00:10:23;33.50;;;18.85;;
24273;SDS011;12392;42.678;23.380;2024-03-02T00:12:54;35.23;;;18.90;;
24273;SDS011;12392;42.678;23.380;2024-03-02T00:18:02;33.10;;;18.52;;
24273;SDS011;12392;42.678;23.380;2024-03-02T00:20:29;37.63;;;19.75;;
24273;SDS011;12392;42.678;23.380;2024-03-02T00:22:56;33.50;;;20.02;;
24273;SDS011;12392;42.678;23.380;2024-03-02T00:33:09;36.20;;;19.33;;
24273;SDS011;12392;42.678;23.380;2024-03-02T00:35:35;34.53;;;19.55;;
24273;SDS011;12392;42.678;23.380;2024-03-02T00:38:05;36.53;;;21.88;;
24273;SDS011;12392;42.678;23.380;2024-03-02T00:40:31;38.05;;;24.02;;
24273;SDS011;12392;42.678;23.380;2024-03-02T00:42:57;38.80;;;24.17;;
24273;SDS011;12392;42.678;23.380;2024-03-02T00:45:23;35.58;;;20.10;;
24273;SDS011;12392;42.678;23.380;2024-03-02T00:47:50;35.25;;;19.60;;
24273;SDS011;12392;42.678;23.380;2024-03-02T00:50:16;36.63;;;20.70;;
24273;SDS011;12392;42.678;23.380;2024-03-02T00:52:42;34.95;;;21.17;;
24273;SDS011;12392;42.678;23.380;2024-03-02T00:55:08;37.83;;;22.40;;
24273;SDS011;12392;42.678;23.380;2024-03-02T00:57:34;35.72;;;21.70;;
24273;SDS011;12392;42.678;23.380;2024-03-02T01:00:00;39.85;;;22.48;;
24273;SDS011;12392;42.678;23.380;2024-03-02T01:02:25;39.10;;;21.17;;
24273;SDS011;12392;42.678;23.380;2024-03-02T01:04:51;35.72;;;21.98;;
24273;SDS011;12392;42.678;23.380;2024-03-02T01:07:17;38.60;;;21.92;;
24273;SDS011;12392;42.678;23.380;2024-03-02T01:09:43;37.53;;;21.85;;
24273;SDS011;12392;42.678;23.380;2024-03-02T01:12:10;37.17;;;21.25;;
24273;SDS011;12392;42.678;23.380;2024-03-02T01:14:35;34.60;;;21.92;;
24273;SDS011;12392;42.678;23.380;2024-03-02T01:17:01;42.45;;;23.27;;
24273;SDS011;12392;42.678;23.380;2024-03-02T01:19:29;40.75;;;22.73;;
24273;SDS011;12392;42.678;23.380;2024-03-02T01:21:55;40.80;;;22.52;;
24273;SDS011;12392;42.678;23.380;2024-03-02T01:24:21;35.97;;;21.80;;
24273;SDS011;12392;42.678;23.380;2024-03-02T01:26:46;36.70;;;22.67;;
24273;SDS011;12392;42.678;23.380;2024-03-02T01:29:12;39.65;;;23.10;;
24273;SDS011;12392;42.678;23.380;2024-03-02T01:31:37;38.83;;;23.67;;
24273;SDS011;12392;42.678;23.380;2024-03-02T01:34:07;34.83;;;21.13;;
24273;SDS011;12392;42.678;23.380;2024-03-02T01:36:33;35.20;;;20.48;;
24273;SDS011;12392;42.678;23.380;2024-03-02T01:38:58;33.95;;;20.63;;
24273;SDS011;12392;42.678;23.380;2024-03-02T01:41:24;40.30;;;22.58;;
24273;SDS011;12392;42.678;23.380;2024-03-02T01:43:50;39.58;;;21.65;;
24273;SDS011;12392;42.678;23.380;2024-03-02T01:46:15;38.88;;;22.77;;
24273;SDS011;12392;42.678;23.380;2024-03-02T01:48:41;37.33;;;20.95;;
24273;SDS011;12392;42.678;23.380;2024-03-02T01:51:07;37.10;;;21.30;;
24273;SDS011;12392;42.678;23.380;2024-03-02T01:53:33;33.03;;;19.98;;
24273;SDS011;12392;42.678;23.380;2024-03-02T01:56:01;38.33;;;21.58;;
24273;SDS011;12392;42.678;23.380;2024-03-02T01:58:27;37.50;;;22.33;;
24273;SDS011;12392;42.678;23.380;2024-03-02T02:00:53;35.10;;;22.48;;
24273;SDS011;12392;42.678;23.380;2024-03-02T02:03:19;39.58;;;21.35;;
24273;SDS011;12392;42.678;23.380;2024-03-02T02:05:44;37.95;;;21.50;;
24273;SDS011;12392;42.678;23.380;2024-03-02T02:08:12;37.70;;;22.92;;
24273;SDS011;12392;42.678;23.380;2024-03-02T02:10:37;42.67;;;22.90;;
24273;SDS011;12392;42.678;23.380;2024-03-02T02:13:03;35.38;;;22.13;;
24273;SDS011;12392;42.678;23.380;2024-03-02T02:15:29;39.30;;;23.35;;
24273;SDS011;12392;42.678;23.380;2024-03-02T02:17:56;47.30;;;25.83;;
24273;SDS011;12392;42.678;23.380;2024-03-02T02:20:22;40.80;;;22.15;;
24273;SDS011;12392;42.678;23.380;2024-03-02T02:23:01;41.55;;;23.50;;
24273;SDS011;12392;42.678;23.380;2024-03-02T02:25:34;41.92;;;21.65;;
24273;SDS011;12392;42.678;23.380;2024-03-02T02:28:00;41.53;;;23.75;;
24273;SDS011;12392;42.678;23.380;2024-03-02T02:30:30;43.42;;;23.08;;
24273;SDS011;12392;42.678;23.380;2024-03-02T02:32:57;39.65;;;21.75;;
24273;SDS011;12392;42.678;23.380;2024-03-02T02:35:23;40.20;;;22.23;;
24273;SDS011;12392;42.678;23.380;2024-03-02T02:37:49;38.90;;;22.83;;
24273;SDS011;12392;42.678;23.380;2024-03-02T02:40:16;39.28;;;22.85;;
24273;SDS011;12392;42.678;23.380;2024-03-02T02:42:43;45.67;;;24.55;;
24273;SDS011;12392;42.678;23.380;2024-03-02T02:45:09;42.03;;;23.60;;
24273;SDS011;12392;42.678;23.380;2024-03-02T02:47:36;45.78;;;26.25;;
24273;SDS011;12392;42.678;23.380;2024-03-02T02:50:02;41.38;;;26.83;;
24273;SDS011;12392;42.678;23.380;2024-03-02T02:52:32;42.28;;;26.70;;
24273;SDS011;12392;42.678;23.380;2024-03-02T02:55:07;40.78;;;22.67;;
24273;SDS011;12392;42.678;23.380;2024-03-02T02:57:36;40.58;;;22.08;;
24273;SDS011;12392;42.678;23.380;2024-03-02T03:00:10;42.42;;;22.02;;
24273;SDS011;12392;42.678;23.380;2024-03-02T03:02:41;45.00;;;25.92;;
24273;SDS011;12392;42.678;23.380;2024-03-02T03:05:07;43.13;;;22.83;;
24273;SDS011;12392;42.678;23.380;2024-03-02T03:07:37;40.45;;;22.17;;
24273;SDS011;12392;42.678;23.380;2024-03-02T03:10:04;45.90;;;22.33;;
24273;SDS011;12392;42.678;23.380;2024-03-02T03:12:31;42.58;;;26.40;;
24273;SDS011;12392;42.678;23.380;2024-03-02T03:14:57;45.22;;;27.48;;
24273;SDS011;12392;42.678;23.380;2024-03-02T03:17:23;41.80;;;22.35;;
24273;SDS011;12392;42.678;23.380;2024-03-02T03:19:49;40.75;;;21.67;;
24273;SDS011;12392;42.678;23.380;2024-03-02T03:22:15;45.88;;;23.88;;
24273;SDS011;12392;42.678;23.380;2024-03-02T03:24:41;40.92;;;23.80;;
24273;SDS011;12392;42.678;23.380;2024-03-02T03:27:07;44.72;;;24.15;;
24273;SDS011;12392;42.678;23.380;2024-03-02T03:29:32;37.92;;;23.35;;
24273;SDS011;12392;42.678;23.380;2024-03-02T03:31:58;44.83;;;25.25;;
24273;SDS011;12392;42.678;23.380;2024-03-02T03:34:24;42.25;;;23.67;;
24273;SDS011;12392;42.678;23.380;2024-03-02T03:36:54;42.35;;;24.35;;
24273;SDS011;12392;42.678;23.380;2024-03-02T03:39:19;42.15;;;22.95;;
24273;SDS011;12392;42.678;23.380;2024-03-02T03:41:45;40.00;;;23.23;;
24273;SDS011;12392;42.678;23.380;2024-03-02T03:44:11;43.10;;;23.60;;
24273;SDS011;12392;42.678;23.380;2024-03-02T03:46:37;40.38;;;22.58;;
24273;SDS011;12392;42.678;23.380;2024-03-02T03:49:03;41.42;;;22.27;;
24273;SDS011;12392;42.678;23.380;2024-03-02T03:51:29;42.35;;;21.52;;
24273;SDS011;12392;42.678;23.380;2024-03-02T03:53:56;41.63;;;21.35;;
24273;SDS011;12392;42.678;23.380;2024-03-02T03:56:22;45.88;;;22.52;;
24273;SDS011;12392;42.678;23.380;2024-03-02T03:58:48;40.55;;;20.85;;
24273;SDS011;12392;42.678;23.380;2024-03-02T04:01:13;40.38;;;20.73;;
24273;SDS011;12392;42.678;23.380;2024-03-02T04:03:39;43.55;;;26.55;;
24273;SDS011;12392;42.678;23.380;2024-03-02T04:06:04;41.92;;;24.95;;
24273;SDS011;12392;42.678;23.380;2024-03-02T04:08:30;42.78;;;24.42;;
24273;SDS011;12392;42.678;23.380;2024-03-02T04:10:56;40.65;;;25.00;;
24273;SDS011;12392;42.678;23.380;2024-03-02T04:13:21;42.22;;;25.00;;
24273;SDS011;12392;42.678;23.380;2024-03-02T04:15:47;40.42;;;22.48;;
24273;SDS011;12392;42.678;23.380;2024-03-02T04:18:13;41.83;;;21.73;;
24273;SDS011;12392;42.678;23.380;2024-03-02T04:20:38;46.58;;;26.10;;
24273;SDS011;12392;42.678;23.380;2024-03-02T04:23:04;45.00;;;23.17;;
24273;SDS011;12392;42.678;23.380;2024-03-02T04:25:30;39.50;;;21.55;;
24273;SDS011;12392;42.678;23.380;2024-03-02T04:27:55;40.50;;;21.30;;
24273;SDS011;12392;42.678;23.380;2024-03-02T04:30:21;38.97;;;21.27;;
24273;SDS011;12392;42.678;23.380;2024-03-02T04:32:47;43.92;;;21.80;;
24273;SDS011;12392;42.678;23.380;2024-03-02T04:35:13;41.47;;;22.35;;
24273;SDS011;12392;42.678;23.380;2024-03-02T04:37:39;42.38;;;21.60;;
24273;SDS011;12392;42.678;23.380;2024-03-02T04:40:05;41.33;;;22.30;;
24273;SDS011;12392;42.678;23.380;2024-03-02T04:42:34;42.83;;;21.13;;
24273;SDS011;12392;42.678;23.380;2024-03-02T04:45:00;44.25;;;21.10;;
24273;SDS011;12392;42.678;23.380;2024-03-02T04:47:26;45.15;;;23.50;;
24273;SDS011;12392;42.678;23.380;2024-03-02T04:49:52;46.88;;;24.00;;
24273;SDS011;12392;42.678;23.380;2024-03-02T04:52:17;41.10;;;22.20;;
24273;SDS011;12392;42.678;23.380;2024-03-02T04:54:43;45.40;;;24.20;;
24273;SDS011;12392;42.678;23.380;2024-03-02T04:57:27;51.15;;;27.98;;
24273;SDS011;12392;42.678;23.380;2024-03-02T04:59:53;48.35;;;24.38;;
24273;SDS011;12392;42.678;23.380;2024-03-02T05:02:19;45.95;;;24.60;;
24273;SDS011;12392;42.678;23.380;2024-03-02T05:04:44;45.95;;;24.60;;
24273;SDS011;12392;42.678;23.380;2024-03-02T05:07:10;48.17;;;24.50;;
24273;SDS011;12392;42.678;23.380;2024-03-02T05:09:36;46.17;;;23.15;;
24273;SDS011;12392;42.678;23.380;2024-03-02T05:12:02;49.30;;;25.55;;
24273;SDS011;12392;42.678;23.380;2024-03-02T05:14:46;51.10;;;24.77;;
24273;SDS011;12392;42.678;23.380;2024-03-02T05:17:11;49.85;;;24.88;;
24273;SDS011;12392;42.678;23.380;2024-03-02T05:19:37;52.10;;;25.08;;
24273;SDS011;12392;42.678;23.380;2024-03-02T05:22:03;55.55;;;31.35;;
24273;SDS011;12392;42.678;23.380;2024-03-02T05:24:29;46.83;;;23.50;;
24273;SDS011;12392;42.678;23.380;2024-03-02T05:26:55;51.80;;;27.08;;
24273;SDS011;12392;42.678;23.380;2024-03-02T05:29:20;47.10;;;23.08;;
24273;SDS011;12392;42.678;23.380;2024-03-02T05:31:46;47.92;;;24.02;;
24273;SDS011;12392;42.678;23.380;2024-03-02T05:34:12;43.55;;;23.50;;
24273;SDS011;12392;42.678;23.380;2024-03-02T05:36:38;49.33;;;26.98;;
24273;SDS011;12392;42.678;23.380;2024-03-02T05:39:04;44.65;;;22.75;;
24273;SDS011;12392;42.678;23.380;2024-03-02T05:41:31;45.00;;;23.92;;
24273;SDS011;12392;42.678;23.380;2024-03-02T05:43:57;51.55;;;23.92;;
24273;SDS011;12392;42.678;23.380;2024-03-02T05:46:22;58.25;;;26.58;;
24273;SDS011;12392;42.678;23.380;2024-03-02T05:48:48;55.10;;;29.15;;
24273;SDS011;12392;42.678;23.380;2024-03-02T05:51:14;53.13;;;24.38;;
24273;SDS011;12392;42.678;23.380;2024-03-02T05:53:40;57.95;;;28.27;;
24273;SDS011;12392;42.678;23.380;2024-03-02T05:56:05;46.40;;;24.67;;
24273;SDS011;12392;42.678;23.380;2024-03-02T05:58:31;50.63;;;24.33;;
24273;SDS011;12392;42.678;23.380;2024-03-02T06:01:16;56.08;;;27.02;;
24273;SDS011;12392;42.678;23.380;2024-03-02T06:03:43;49.88;;;24.38;;
24273;SDS011;12392;42.678;23.380;2024-03-02T06:06:09;51.65;;;23.83;;
24273;SDS011;12392;42.678;23.380;2024-03-02T06:08:35;49.58;;;26.02;;
24273;SDS011;12392;42.678;23.380;2024-03-02T06:11:00;51.60;;;25.40;;
24273;SDS011;12392;42.678;23.380;2024-03-02T06:13:26;48.67;;;25.48;;
24273;SDS011;12392;42.678;23.380;2024-03-02T06:15:52;50.30;;;26.23;;
24273;SDS011;12392;42.678;23.380;2024-03-02T06:18:18;57.60;;;27.67;;
24273;SDS011;12392;42.678;23.380;2024-03-02T06:20:43;57.00;;;27.88;;
24273;SDS011;12392;42.678;23.380;2024-03-02T06:23:09;55.38;;;26.63;;
24273;SDS011;12392;42.678;23.380;2024-03-02T06:25:35;56.67;;;27.13;;
24273;SDS011;12392;42.678;23.380;2024-03-02T06:28:00;54.53;;;28.20;;
24273;SDS011;12392;42.678;23.380;2024-03-02T06:30:26;62.40;;;31.38;;
24273;SDS011;12392;42.678;23.380;2024-03-02T06:32:52;61.10;;;31.55;;
24273;SDS011;12392;42.678;23.380;2024-03-02T06:35:17;49.95;;;25.40;;
24273;SDS011;12392;42.678;23.380;2024-03-02T06:37:43;55.90;;;27.75;;
24273;SDS011;12392;42.678;23.380;2024-03-02T06:40:08;54.50;;;26.70;;
24273;SDS011;12392;42.678;23.380;2024-03-02T06:42:35;55.45;;;27.20;;
24273;SDS011;12392;42.678;23.380;2024-03-02T06:45:01;60.70;;;28.70;;
24273;SDS011;12392;42.678;23.380;2024-03-02T06:47:28;56.20;;;28.23;;
24273;SDS011;12392;42.678;23.380;2024-03-02T06:49:53;59.50;;;28.48;;
24273;SDS011;12392;42.678;23.380;2024-03-02T06:52:19;52.70;;;26.73;;
24273;SDS011;12392;42.678;23.380;2024-03-02T06:54:46;60.00;;;28.05;;
24273;SDS011;12392;42.678;23.380;2024-03-02T06:57:11;55.92;;;27.98;;
24273;SDS011;12392;42.678;23.380;2024-03-02T06:59:37;56.42;;;26.02;;
24273;SDS011;12392;42.678;23.380;2024-03-02T07:02:03;51.15;;;26.40;;
24273;SDS011;12392;42.678;23.380;2024-03-02T07:04:28;50.78;;;25.50;;
24273;SDS011;12392;42.678;23.380;2024-03-02T07:06:54;54.60;;;26.48;;
24273;SDS011;12392;42.678;23.380;2024-03-02T07:09:20;54.58;;;27.27;;
24273;SDS011;12392;42.678;23.380;2024-03-02T07:11:48;51.25;;;27.20;;
24273;SDS011;12392;42.678;23.380;2024-03-02T07:14:14;53.90;;;25.70;;
24273;SDS011;12392;42.678;23.380;2024-03-02T07:16:39;53.22;;;29.63;;
24273;SDS011;12392;42.678;23.380;2024-03-02T07:19:05;51.33;;;23.95;;
24273;SDS011;12392;42.678;23.380;2024-03-02T07:21:31;45.58;;;23.10;;
24273;SDS011;12392;42.678;23.380;2024-03-02T07:23:58;48.17;;;22.50;;
24273;SDS011;12392;42.678;23.380;2024-03-02T07:26:24;54.50;;;23.40;;
24273;SDS011;12392;42.678;23.380;2024-03-02T07:28:50;47.45;;;24.77;;
24273;SDS011;12392;42.678;23.380;2024-03-02T07:31:16;46.95;;;23.52;;
24273;SDS011;12392;42.678;23.380;2024-03-02T07:33:43;49.92;;;23.95;;
24273;SDS011;12392;42.678;23.380;2024-03-02T07:36:10;47.78;;;25.40;;
24273;SDS011;12392;42.678;23.380;2024-03-02T07:38:36;48.67;;;23.60;;
24273;SDS011;12392;42.678;23.380;2024-03-02T07:41:02;46.33;;;24.70;;
24273;SDS011;12392;42.678;23.380;2024-03-02T07:43:29;52.47;;;23.33;;
24273;SDS011;12392;42.678;23.380;2024-03-02T07:45:56;48.22;;;23.40;;
24273;SDS011;12392;42.678;23.380;2024-03-02T07:48:22;43.65;;;21.58;;
24273;SDS011;12392;42.678;23.380;2024-03-02T07:50:47;46.10;;;22.75;;
24273;SDS011;12392;42.678;23.380;2024-03-02T07:53:13;45.53;;;24.35;;
24273;SDS011;12392;42.678;23.380;2024-03-02T07:55:39;49.50;;;25.55;;
24273;SDS011;12392;42.678;23.380;2024-03-02T07:58:05;49.42;;;26.50;;
24273;SDS011;12392;42.678;23.380;2024-03-02T08:00:31;45.58;;;25.45;;
24273;SDS011;12392;42.678;23.380;2024-03-02T08:02:57;48.95;;;23.13;;
24273;SDS011;12392;42.678;23.380;2024-03-02T08:05:23;48.60;;;21.92;;
24273;SDS011;12392;42.678;23.380;2024-03-02T08:07:49;43.92;;;23.13;;
24273;SDS011;12392;42.678;23.380;2024-03-02T08:10:17;47.42;;;24.02;;
24273;SDS011;12392;42.678;23.380;2024-03-02T08:12:44;49.20;;;23.50;;
24273;SDS011;12392;42.678;23.380;2024-03-02T08:15:09;45.97;;;22.77;;
24273;SDS011;12392;42.678;23.380;2024-03-02T08:17:35;50.20;;;23.35;;
24273;SDS011;12392;42.678;23.380;2024-03-02T08:20:00;45.67;;;24.83;;
24273;SDS011;12392;42.678;23.380;2024-03-02T08:22:27;46.38;;;25.15;;
24273;SDS011;12392;42.678;23.380;2024-03-02T08:24:53;52.58;;;25.13;;
24273;SDS011;12392;42.678;23.380;2024-03-02T08:27:19;48.22;;;25.45;;
24273;SDS011;12392;42.678;23.380;2024-03-02T08:29:45;49.22;;;24.50;;
24273;SDS011;12392;42.678;23.380;2024-03-02T08:32:10;45.85;;;23.05;;
24273;SDS011;12392;42.678;23.380;2024-03-02T08:34:36;53.15;;;28.30;;
24273;SDS011;12392;42.678;23.380;2024-03-02T08:37:02;47.22;;;23.95;;
24273;SDS011;12392;42.678;23.380;2024-03-02T08:39:28;47.45;;;23.85;;
24273;SDS011;12392;42.678;23.380;2024-03-02T08:41:54;50.25;;;25.13;;
24273;SDS011;12392;42.678;23.380;2024-03-02T08:44:19;49.88;;;25.38;;
24273;SDS011;12392;42.678;23.380;2024-03-02T08:46:45;53.08;;;26.13;;
24273;SDS011;12392;42.678;23.380;2024-03-02T08:49:11;47.92;;;24.65;;
24273;SDS011;12392;42.678;23.380;2024-03-02T08:51:37;50.13;;;25.98;;
24273;SDS011;12392;42.678;23.380;2024-03-02T08:54:03;65.57;;;34.38;;
24273;SDS011;12392;42.678;23.380;2024-03-02T08:56:29;47.25;;;22.30;;
24273;SDS011;12392;42.678;23.380;2024-03-02T08:58:56;82.78;;;42.15;;
24273;SDS011;12392;42.678;23.380;2024-03-02T09:01:21;64.20;;;32.55;;
24273;SDS011;12392;42.678;23.380;2024-03-02T09:03:47;75.97;;;38.50;;
24273;SDS011;12392;42.678;23.380;2024-03-02T09:06:14;66.72;;;34.83;;
24273;SDS011;12392;42.678;23.380;2024-03-02T09:08:44;45.42;;;24.30;;
24273;SDS011;12392;42.678;23.380;2024-03-02T09:11:10;52.47;;;29.38;;
24273;SDS011;12392;42.678;23.380;2024-03-02T09:13:37;39.78;;;22.05;;
24273;SDS011;12392;42.678;23.380;2024-03-02T09:16:03;54.45;;;30.90;;
24273;SDS011;12392;42.678;23.380;2024-03-02T09:18:30;39.47;;;20.48;;
24273;SDS011;12392;42.678;23.380;2024-03-02T09:20:56;41.95;;;24.15;;
24273;SDS011;12392;42.678;23.380;2024-03-02T09:23:21;40.83;;;21.20;;
24273;SDS011;12392;42.678;23.380;2024-03-02T09:25:47;44.17;;;21.75;;
24273;SDS011;12392;42.678;23.380;2024-03-02T09:28:13;41.00;;;22.25;;
24273;SDS011;12392;42.678;23.380;2024-03-02T09:30:40;44.15;;;21.63;;
24273;SDS011;12392;42.678;23.380;2024-03-02T09:33:06;45.28;;;21.92;;
24273;SDS011;12392;42.678;23.380;2024-03-02T09:35:32;40.45;;;21.02;;
24273;SDS011;12392;42.678;23.380;2024-03-02T09:37:57;40.25;;;22.50;;
24273;SDS011;12392;42.678;23.380;2024-03-02T09:40:23;47.40;;;22.95;;
24273;SDS011;12392;42.678;23.380;2024-03-02T09:42:49;43.45;;;20.15;;
24273;SDS011;12392;42.678;23.380;2024-03-02T09:45:26;37.25;;;19.88;;
24273;SDS011;12392;42.678;23.380;2024-03-02T09:47:52;39.65;;;22.55;;
24273;SDS011;12392;42.678;23.380;2024-03-02T09:50:18;37.67;;;19.90;;
24273;SDS011;12392;42.678;23.380;2024-03-02T09:52:43;62.88;;;19.88;;
24273;SDS011;12392;42.678;23.380;2024-03-02T09:55:09;34.88;;;19.77;;
24273;SDS011;12392;42.678;23.380;2024-03-02T09:57:36;36.22;;;19.77;;
24273;SDS011;12392;42.678;23.380;2024-03-02T10:00:02;39.13;;;21.30;;
24273;SDS011;12392;42.678;23.380;2024-03-02T10:02:28;38.53;;;19.92;;
24273;SDS011;12392;42.678;23.380;2024-03-02T10:04:54;37.88;;;19.73;;
24273;SDS011;12392;42.678;23.380;2024-03-02T10:07:20;38.55;;;20.17;;
24273;SDS011;12392;42.678;23.380;2024-03-02T10:09:46;38.05;;;20.70;;
24273;SDS011;12392;42.678;23.380;2024-03-02T10:12:14;38.53;;;19.63;;
24273;SDS011;12392;42.678;23.380;2024-03-02T10:14:41;35.55;;;18.65;;
24273;SDS011;12392;42.678;23.380;2024-03-02T10:17:07;32.10;;;18.45;;
24273;SDS011;12392;42.678;23.380;2024-03-02T10:19:34;32.65;;;18.33;;
24273;SDS011;12392;42.678;23.380;2024-03-02T10:22:02;36.80;;;20.63;;
24273;SDS011;12392;42.678;23.380;2024-03-02T10:24:36;31.48;;;16.75;;
24273;SDS011;12392;42.678;23.380;2024-03-02T10:27:26;31.77;;;16.52;;
24273;SDS011;12392;42.678;23.380;2024-03-02T10:29:51;30.48;;;16.83;;
24273;SDS011;12392;42.678;23.380;2024-03-02T10:32:16;26.95;;;15.70;;
24273;SDS011;12392;42.678;23.380;2024-03-02T10:34:43;30.13;;;16.50;;
24273;SDS011;12392;42.678;23.380;2024-03-02T10:37:10;29.70;;;16.33;;
24273;SDS011;12392;42.678;23.380;2024-03-02T10:39:36;25.98;;;15.35;;
24273;SDS011;12392;42.678;23.380;2024-03-02T10:42:04;27.73;;;15.60;;
24273;SDS011;12392;42.678;23.380;2024-03-02T10:44:31;23.15;;;15.13;;
24273;SDS011;12392;42.678;23.380;2024-03-02T10:46:58;29.73;;;16.67;;
24273;SDS011;12392;42.678;23.380;2024-03-02T10:49:29;30.80;;;14.85;;
24273;SDS011;12392;42.678;23.380;2024-03-02T10:51:57;28.77;;;16.77;;
24273;SDS011;12392;42.678;23.380;2024-03-02T10:54:23;28.55;;;15.52;;
24273;SDS011;12392;42.678;23.380;2024-03-02T10:56:52;22.98;;;13.90;;
24273;SDS011;12392;42.678;23.380;2024-03-02T10:59:30;27.98;;;14.85;;
24273;SDS011;12392;42.678;23.380;2024-03-02T11:02:02;25.55;;;14.75;;
24273;SDS011;12392;42.678;23.380;2024-03-02T11:04:29;29.55;;;16.48;;
24273;SDS011;12392;42.678;23.380;2024-03-02T11:06:59;29.85;;;16.75;;
24273;SDS011;12392;42.678;23.380;2024-03-02T11:09:28;42.72;;;26.75;;
24273;SDS011;12392;42.678;23.380;2024-03-02T11:12:00;34.40;;;20.90;;
24273;SDS011;12392;42.678;23.380;2024-03-02T11:14:43;27.70;;;16.60;;
24273;SDS011;12392;42.678;23.380;2024-03-02T11:17:08;25.58;;;15.48;;
24273;SDS011;12392;42.678;23.380;2024-03-02T11:19:34;33.83;;;18.13;;
24273;SDS011;12392;42.678;23.380;2024-03-02T11:22:02;27.85;;;16.48;;
24273;SDS011;12392;42.678;23.380;2024-03-02T11:24:28;36.33;;;18.98;;
24273;SDS011;12392;42.678;23.380;2024-03-02T11:27:04;30.73;;;17.85;;
24273;SDS011;12392;42.678;23.380;2024-03-02T11:32:14;27.48;;;14.98;;
24273;SDS011;12392;42.678;23.380;2024-03-02T11:34:43;23.75;;;14.65;;
24273;SDS011;12392;42.678;23.380;2024-03-02T11:37:12;29.45;;;15.70;;
24273;SDS011;12392;42.678;23.380;2024-03-02T11:39:42;28.98;;;16.02;;
24273;SDS011;12392;42.678;23.380;2024-03-02T11:42:09;27.27;;;15.20;;
24273;SDS011;12392;42.678;23.380;2024-03-02T11:44:35;21.65;;;12.77;;
24273;SDS011;12392;42.678;23.380;2024-03-02T11:47:07;18.25;;;11.80;;
24273;SDS011;12392;42.678;23.380;2024-03-02T11:52:03;17.55;;;11.45;;
24273;SDS011;12392;42.678;23.380;2024-03-02T11:54:32;21.95;;;12.98;;
24273;SDS011;12392;42.678;23.380;2024-03-02T11:57:04;20.67;;;13.60;;
24273;SDS011;12392;42.678;23.380;2024-03-02T11:59:30;21.55;;;12.90;;
24273;SDS011;12392;42.678;23.380;2024-03-02T12:01:56;22.13;;;13.60;;
24273;SDS011;12392;42.678;23.380;2024-03-02T12:04:23;25.20;;;14.88;;
24273;SDS011;12392;42.678;23.380;2024-03-02T12:06:58;22.92;;;13.88;;
24273;SDS011;12392;42.678;23.380;2024-03-02T12:09:25;23.05;;;13.15;;
24273;SDS011;12392;42.678;23.380;2024-03-02T12:12:06;26.38;;;16.13;;
24273;SDS011;12392;42.678;23.380;2024-03-02T12:14:34;19.35;;;12.95;;
24273;SDS011;12392;42.678;23.380;2024-03-02T12:17:01;16.02;;;11.25;;
24273;SDS011;12392;42.678;23.380;2024-03-02T12:19:27;18.35;;;12.73;;
24273;SDS011;12392;42.678;23.380;2024-03-02T12:21:55;16.25;;;10.52;;
24273;SDS011;12392;42.678;23.380;2024-03-02T12:24:21;18.38;;;10.98;;
24273;SDS011;12392;42.678;23.380;2024-03-02T12:26:49;15.82;;;10.32;;
24273;SDS011;12392;42.678;23.380;2024-03-02T12:29:15;18.52;;;11.15;;
24273;SDS011;12392;42.678;23.380;2024-03-02T12:31:44;15.65;;;9.98;;
24273;SDS011;12392;42.678;23.380;2024-03-02T12:34:13;15.38;;;10.10;;
24273;SDS011;12392;42.678;23.380;2024-03-02T12:36:39;18.70;;;11.15;;
24273;SDS011;12392;42.678;23.380;2024-03-02T12:39:06;16.33;;;9.65;;
24273;SDS011;12392;42.678;23.380;2024-03-02T12:41:36;18.33;;;10.43;;
24273;SDS011;12392;42.678;23.380;2024-03-02T12:44:02;16.98;;;10.05;;
24273;SDS011;12392;42.678;23.380;2024-03-02T12:46:28;15.80;;;10.60;;
24273;SDS011;12392;42.678;23.380;2024-03-02T12:48:55;18.30;;;10.80;;
24273;SDS011;12392;42.678;23.380;2024-03-02T12:51:20;19.65;;;11.82;;
24273;SDS011;12392;42.678;23.380;2024-03-02T12:53:52;18.27;;;11.73;;
24273;SDS011;12392;42.678;23.380;2024-03-02T12:56:19;21.58;;;13.07;;
24273;SDS011;12392;42.678;23.380;2024-03-02T12:58:44;17.65;;;11.40;;
24273;SDS011;12392;42.678;23.380;2024-03-02T13:01:10;19.58;;;11.15;;
24273;SDS011;12392;42.678;23.380;2024-03-02T13:03:39;18.55;;;11.05;;
24273;SDS011;12392;42.678;23.380;2024-03-02T13:06:05;16.30;;;10.75;;
24273;SDS011;12392;42.678;23.380;2024-03-02T13:08:32;19.08;;;10.10;;
24273;SDS011;12392;42.678;23.380;2024-03-02T13:11:01;16.35;;;11.13;;
24273;SDS011;12392;42.678;23.380;2024-03-02T13:13:30;17.85;;;11.45;;
24273;SDS011;12392;42.678;23.380;2024-03-02T13:15:56;16.38;;;10.85;;
24273;SDS011;12392;42.678;23.380;2024-03-02T13:18:21;18.17;;;11.45;;
24273;SDS011;12392;42.678;23.380;2024-03-02T13:20:47;14.45;;;9.25;;
24273;SDS011;12392;42.678;23.380;2024-03-02T13:23:13;16.00;;;10.45;;
24273;SDS011;12392;42.678;23.380;2024-03-02T13:25:39;14.32;;;9.55;;
24273;SDS011;12392;42.678;23.380;2024-03-02T13:28:05;17.58;;;10.00;;
24273;SDS011;12392;42.678;23.380;2024-03-02T13:30:31;17.58;;;10.52;;
24273;SDS011;12392;42.678;23.380;2024-03-02T13:32:57;17.90;;;10.38;;
24273;SDS011;12392;42.678;23.380;2024-03-02T13:35:23;14.27;;;9.98;;
24273;SDS011;12392;42.678;23.380;2024-03-02T13:37:49;15.25;;;10.32;;
24273;SDS011;12392;42.678;23.380;2024-03-02T13:40:15;17.38;;;11.68;;
24273;SDS011;12392;42.678;23.380;2024-03-02T13:42:45;19.10;;;12.98;;
24273;SDS011;12392;42.678;23.380;2024-03-02T13:45:11;23.98;;;14.77;;
24273;SDS011;12392;42.678;23.380;2024-03-02T13:47:41;26.13;;;15.10;;
24273;SDS011;12392;42.678;23.380;2024-03-02T13:50:07;21.63;;;14.68;;
24273;SDS011;12392;42.678;23.380;2024-03-02T13:52:32;22.73;;;14.57;;
24273;SDS011;12392;42.678;23.380;2024-03-02T13:54:58;24.95;;;14.32;;
24273;SDS011;12392;42.678;23.380;2024-03-02T13:57:24;19.25;;;12.55;;
24273;SDS011;12392;42.678;23.380;2024-03-02T13:59:50;20.15;;;12.88;;
24273;SDS011;12392;42.678;23.380;2024-03-02T14:02:17;20.85;;;13.43;;
24273;SDS011;12392;42.678;23.380;2024-03-02T14:04:43;22.77;;;14.10;;
24273;SDS011;12392;42.678;23.380;2024-03-02T14:07:08;21.02;;;14.00;;
24273;SDS011;12392;42.678;23.380;2024-03-02T14:09:35;25.55;;;16.17;;
24273;SDS011;12392;42.678;23.380;2024-03-02T14:12:01;24.60;;;15.90;;
24273;SDS011;12392;42.678;23.380;2024-03-02T14:14:27;27.52;;;16.52;;
24273;SDS011;12392;42.678;23.380;2024-03-02T14:16:53;29.35;;;17.23;;
24273;SDS011;12392;42.678;23.380;2024-03-02T14:19:20;27.38;;;17.20;;
24273;SDS011;12392;42.678;23.380;2024-03-02T14:21:46;25.67;;;16.15;;